McGrath, AK

5:36 AM AKST on February 26, 2017 (GMT -0900)
McGrath | | Change Station

Elev 335 ft 62.95 °N, 155.61 °W | Updated 5 minutes ago

Overcast
Overcast
33 °F
Feels Like 26 °F
N
9
Wind Variable Wind from SW

Today
High -- | Low -- °F
--% Chance of Precip.
Yesterday
High -- | Low -- °F
Precip. -- in
Pressure 30.29 in
Visibility 2.5 miles
Clouds Few 1800 ft
Mostly Cloudy 2900 ft
Overcast 6500 ft
Windchill 26 °F
Dew Point 28 °F
Humidity 82%
Rainfall 0.00 in
Snow Depth Not available.
8:35 AM 6:36 PM
Waning Crescent, 0% visible
SPECI PAMC 261431Z 23008KT 2 1/2SM -SN FEW018 BKN029 OVC065 01/M02 A3029 RMK AO2 SNB24 P0000 T00061022
Pressure 30.29 in
Visibility 2.5 miles
Clouds Few 1800 ft
Mostly Cloudy 2900 ft
Overcast 6500 ft
Windchill 26 °F
Dew Point 28 °F
Humidity 82%
Rainfall 0.00 in
Snow Depth Not available.
8:35 AM 6:36 PM
Waning Crescent, 0% visible
SPECI PAMC 261431Z 23008KT 2 1/2SM -SN FEW018 BKN029 OVC065 01/M02 A3029 RMK AO2 SNB24 P0000 T00061022

Get Your Daily Forecast Email!

Thanks for signing up!

Be on the lookout for a verification email in your inbox.

You'll start receiving the daily forecast at 8 AM.

×

10-Day Weather Forecast

Almanac

Astronomy

Feb. 26, 2017 Rise Set
Actual Time
Civil Twilight
Nautical Twilight
Astronomical Twilight
Moon
Length of Visible Light
Length of Day
Tomorrow will be .
, % of the Moon is Illuminated

Today's Extremes

State Highs State Lows

Community

WunderPhotos

Upload Photos

1,962,540 photos uploaded!

WunderBlog® & News

Nearby

Air Quality

  Air Quality AQ Index Pollutant
Not available.

Snow Depth

Station Depth Elevation

Earthquake Activity

City Distance Mag. Time & Date
Minimum magnitude displayed is 2.5.

Coastal Water Temperatures

Place Temperature

Stations

Nearby Weather Stations

Station Location Temp. Windchill Dew Point Humidity Wind Precip. Elev Updated Type
                   

Watches & Warnings

There are currently no watches in effect.